Time;durP1;ratioP1;P1;durP2;ratioP2;P2;SDS_P1;SDS_P2;PMS_P1;PMS_P2;Temp;Humidity;BMP_temperature;BMP_pressure;BME280_temperature;BME280_humidity;BME280_pressure;Samples;Min_cycle;Max_cycle;Signal;HPM_P1;HPM_P2
2022/06/26 00:02:17;;;;;;;;;;;17.60;99.90;;;;;;4999953;28;19924;-57
2022/06/26 00:04:44;;;;;;;;;;;17.60;99.90;;;;;;5006890;28;19982;-55
2022/06/26 00:07:09;;;;;;;;;;;17.60;99.90;;;;;;5029308;28;19920;-55
2022/06/26 00:09:35;;;;;;;;;;;17.60;99.90;;;;;;5027051;28;19934;-57
2022/06/26 00:12:00;;;;;;;;;;;17.60;99.90;;;;;;5034240;28;19930;-57
2022/06/26 00:14:26;;;;;;;;;;;17.60;99.90;;;;;;5013627;28;20382;-58
2022/06/26 00:16:52;;;;;;;;;;;17.60;99.90;;;;;;5025567;28;19975;-57
2022/06/26 00:19:17;;;;;;;;;;;17.60;99.90;;;;;;5026975;28;19956;-55
2022/06/26 00:21:43;;;;;;;;;;;17.60;99.90;;;;;;5028007;28;20003;-56
2022/06/26 00:24:09;;;;;;;;;;;17.70;99.90;;;;;;5032508;28;20373;-58
2022/06/26 00:26:34;;;;;;;;;;;17.70;99.90;;;;;;5023192;28;19921;-56
2022/06/26 00:29:00;;;;;;;;;;;17.60;99.90;;;;;;5033800;28;19916;-57
2022/06/26 00:31:25;;;;;;;;;;;17.50;99.90;;;;;;5022935;28;20054;-57
2022/06/26 00:33:51;;;;;;;;;;;17.50;99.90;;;;;;5023236;28;20031;-57
2022/06/26 00:36:17;;;;;;;;;;;17.50;99.90;;;;;;5022899;28;20654;-56
2022/06/26 00:38:42;;;;;;;;;;;17.50;99.90;;;;;;5018646;28;19924;-57
2022/06/26 00:41:08;;;;;;;;;;;17.60;99.90;;;;;;5022175;28;19916;-56
2022/06/26 00:43:33;;;;;;;;;;;17.60;99.90;;;;;;5025770;28;19917;-57
2022/06/26 00:45:59;;;;;;;;;;;17.60;99.90;;;;;;5013305;28;19928;-57
2022/06/26 00:48:24;;;;;;;;;;;17.60;99.90;;;;;;5025020;28;19956;-54
2022/06/26 00:50:51;;;;;;;;;;;17.60;99.90;;;;;;5036906;28;20359;-58
2022/06/26 00:53:17;;;;;;;;;;;17.60;99.90;;;;;;5018433;28;19916;-58
2022/06/26 00:55:43;;;;;;;;;;;17.60;99.90;;;;;;5025449;28;19917;-58
2022/06/26 00:58:09;;;;;;;;;;;17.60;99.90;;;;;;5029742;28;19917;-58
2022/06/26 01:00:34;;;;;;;;;;;17.60;99.90;;;;;;5027762;28;19921;-57
2022/06/26 01:03:00;;;;;;;;;;;17.50;99.90;;;;;;5028102;28;20292;-58
2022/06/26 01:05:25;;;;;;;;;;;17.50;99.90;;;;;;5015237;28;19929;-57
2022/06/26 01:07:51;;;;;;;;;;;17.50;99.90;;;;;;5022465;28;20027;-58
2022/06/26 01:10:18;;;;;;;;;;;17.60;99.90;;;;;;5016739;28;19917;-56
2022/06/26 01:12:43;;;;;;;;;;;17.60;99.90;;;;;;5040643;28;19916;-56
2022/06/26 01:15:09;;;;;;;;;;;17.60;99.90;;;;;;5036305;28;19950;-58
2022/06/26 01:17:35;;;;;;;;;;;17.60;99.90;;;;;;5021632;28;19925;-55
2022/06/26 01:20:01;;;;;;;;;;;17.70;99.90;;;;;;5030023;28;19921;-54
2022/06/26 01:22:28;;;;;;;;;;;17.70;99.90;;;;;;5031285;28;19917;-57
2022/06/26 01:24:53;;;;;;;;;;;17.70;99.90;;;;;;5002724;28;19916;-59
2022/06/26 01:27:19;;;;;;;;;;;17.70;99.90;;;;;;5029131;28;20352;-58
2022/06/26 01:29:45;;;;;;;;;;;17.70;99.90;;;;;;5033056;28;20399;-57
2022/06/26 01:32:10;;;;;;;;;;;17.70;99.90;;;;;;5037363;28;19921;-57
2022/06/26 01:34:36;;;;;;;;;;;17.80;99.90;;;;;;5014929;28;19928;-57
2022/06/26 01:37:02;;;;;;;;;;;17.80;99.90;;;;;;5025938;28;20377;-58
2022/06/26 01:39:27;;;;;;;;;;;17.80;99.90;;;;;;5035148;28;20636;-58
2022/06/26 01:41:53;;;;;;;;;;;17.80;99.90;;;;;;5030032;28;19924;-58
2022/06/26 01:44:19;;;;;;;;;;;17.70;99.90;;;;;;5020702;28;19924;-58
2022/06/26 01:46:45;;;;;;;;;;;17.80;99.90;;;;;;5026867;28;19952;-58
2022/06/26 01:49:10;;;;;;;;;;;17.70;99.90;;;;;;5028342;28;20576;-57
2022/06/26 01:51:36;;;;;;;;;;;17.70;99.90;;;;;;5010510;28;19917;-58
2022/06/26 01:54:02;;;;;;;;;;;17.70;99.90;;;;;;5033423;28;19927;-58
2022/06/26 01:56:27;;;;;;;;;;;17.70;99.90;;;;;;5020316;28;19917;-58
2022/06/26 01:58:53;;;;;;;;;;;17.70;99.90;;;;;;5042602;28;19944;-58
2022/06/26 02:01:19;;;;;;;;;;;17.70;99.90;;;;;;5036567;28;20051;-58
2022/06/26 02:03:44;;;;;;;;;;;17.80;99.90;;;;;;5037160;28;19917;-58
2022/06/26 02:06:10;;;;;;;;;;;17.70;99.90;;;;;;5025573;28;20024;-58
2022/06/26 02:08:36;;;;;;;;;;;17.70;99.90;;;;;;5044633;28;20146;-58
2022/06/26 02:13:47;;;;;;;;;;;17.70;99.90;;;;;;5023938;28;19925;-58
2022/06/26 02:16:18;;;;;;;;;;;17.70;99.90;;;;;;5032894;28;19920;-58
2022/06/26 02:18:46;;;;;;;;;;;17.70;99.90;;;;;;5036847;28;19916;-58
2022/06/26 02:21:12;;;;;;;;;;;17.70;99.90;;;;;;5028624;28;20051;-58
2022/06/26 02:23:39;;;;;;;;;;;17.70;99.90;;;;;;5036116;28;19963;-56
2022/06/26 02:26:05;;;;;;;;;;;17.70;99.90;;;;;;5044197;28;20474;-58
2022/06/26 02:28:31;;;;;;;;;;;17.70;99.90;;;;;;5035398;28;19924;-58
2022/06/26 02:30:57;;;;;;;;;;;17.70;99.90;;;;;;5034393;28;19943;-58
2022/06/26 02:33:23;;;;;;;;;;;17.60;99.90;;;;;;5032983;28;19917;-58
2022/06/26 02:35:49;;;;;;;;;;;17.60;99.90;;;;;;5038847;28;19916;-59
2022/06/26 02:38:17;;;;;;;;;;;17.60;99.90;;;;;;5029274;28;19920;-58
2022/06/26 02:40:44;;;;;;;;;;;17.60;99.90;;;;;;5035848;28;19979;-58
2022/06/26 02:43:10;;;;;;;;;;;17.60;99.90;;;;;;5042812;28;19916;-58
2022/06/26 02:45:35;;;;;;;;;;;17.60;99.90;;;;;;5025654;28;19931;-58
2022/06/26 02:48:01;;;;;;;;;;;17.60;99.90;;;;;;5040213;28;20015;-58
2022/06/26 02:50:27;;;;;;;;;;;17.60;99.90;;;;;;5027561;28;19916;-58
2022/06/26 02:52:53;;;;;;;;;;;17.60;99.90;;;;;;5011854;28;20390;-58
2022/06/26 02:55:18;;;;;;;;;;;17.50;99.90;;;;;;5017185;28;20356;-58
2022/06/26 02:57:44;;;;;;;;;;;17.50;99.90;;;;;;5034998;28;19923;-59
2022/06/26 03:00:11;;;;;;;;;;;17.60;99.90;;;;;;5021997;28;19933;-58
2022/06/26 03:02:37;;;;;;;;;;;17.60;99.90;;;;;;5033760;28;19982;-58
2022/06/26 03:05:03;;;;;;;;;;;17.50;99.90;;;;;;5030054;28;20034;-59
2022/06/26 03:07:28;;;;;;;;;;;17.50;99.90;;;;;;5018119;28;19916;-58
2022/06/26 03:09:54;;;;;;;;;;;17.60;99.90;;;;;;5029824;28;20526;-58
2022/06/26 03:12:19;;;;;;;;;;;17.60;99.90;;;;;;5044827;28;19996;-57
2022/06/26 03:14:45;;;;;;;;;;;17.60;99.90;;;;;;5034857;28;19916;-58
2022/06/26 03:17:10;;;;;;;;;;;17.60;99.90;;;;;;5037640;28;19920;-59
2022/06/26 03:19:36;;;;;;;;;;;17.60;99.90;;;;;;5035694;28;20167;-58
2022/06/26 03:22:02;;;;;;;;;;;17.60;99.90;;;;;;5040650;28;19920;-57
2022/06/26 03:24:27;;;;;;;;;;;17.60;99.90;;;;;;5034883;28;19923;-58
2022/06/26 03:26:53;;;;;;;;;;;17.60;99.90;;;;;;5034122;28;19920;-57
2022/06/26 03:29:19;;;;;;;;;;;17.60;99.90;;;;;;5038694;28;20026;-58
2022/06/26 03:31:44;;;;;;;;;;;17.60;99.90;;;;;;5026028;28;19916;-57
2022/06/26 03:34:10;;;;;;;;;;;17.60;99.90;;;;;;5024414;28;19925;-58
2022/06/26 03:36:36;;;;;;;;;;;17.60;99.90;;;;;;5029882;28;21145;-57
2022/06/26 03:39:02;;;;;;;;;;;17.60;99.90;;;;;;5022296;28;19917;-58
2022/06/26 03:41:27;;;;;;;;;;;17.60;99.90;;;;;;5033129;28;20394;-58
2022/06/26 03:43:53;;;;;;;;;;;17.60;99.90;;;;;;5032725;28;19917;-55
2022/06/26 03:46:19;;;;;;;;;;;17.60;99.90;;;;;;5035411;28;20079;-58
2022/06/26 03:48:44;;;;;;;;;;;17.60;99.90;;;;;;5025400;28;19967;-57
2022/06/26 03:51:10;;;;;;;;;;;17.60;99.90;;;;;;5028162;28;19920;-58
2022/06/26 03:53:36;;;;;;;;;;;17.60;99.90;;;;;;5030018;28;19921;-57
2022/06/26 03:56:02;;;;;;;;;;;17.60;99.90;;;;;;5013245;28;19924;-58
2022/06/26 03:58:28;;;;;;;;;;;17.60;99.90;;;;;;5037600;28;19923;-57
2022/06/26 04:00:53;;;;;;;;;;;17.60;99.90;;;;;;5033839;28;19916;-58
2022/06/26 04:03:19;;;;;;;;;;;17.60;99.90;;;;;;5040687;28;19924;-58
2022/06/26 04:05:45;;;;;;;;;;;17.60;99.90;;;;;;5035897;28;20284;-58
2022/06/26 04:08:11;;;;;;;;;;;17.70;99.90;;;;;;5033278;28;19927;-58
2022/06/26 04:10:36;;;;;;;;;;;17.70;99.90;;;;;;5024007;28;19955;-58
2022/06/26 04:13:06;;;;;;;;;;;17.70;99.90;;;;;;5024351;28;19925;-58
2022/06/26 04:15:32;;;;;;;;;;;17.70;99.90;;;;;;5029038;28;20224;-57
2022/06/26 04:17:58;;;;;;;;;;;17.70;99.90;;;;;;5034266;28;19970;-57
2022/06/26 04:20:24;;;;;;;;;;;17.70;99.90;;;;;;5016651;28;19925;-57
2022/06/26 04:22:55;;;;;;;;;;;17.70;99.90;;;;;;5040201;22;19921;-53
2022/06/26 04:25:20;;;;;;;;;;;17.70;99.90;;;;;;5031734;28;19925;-54
2022/06/26 04:27:46;;;;;;;;;;;17.70;99.90;;;;;;5026458;28;19923;-54
2022/06/26 04:30:11;;;;;;;;;;;17.70;99.90;;;;;;5029740;28;20144;-54
2022/06/26 04:32:37;;;;;;;;;;;17.70;99.90;;;;;;5024505;28;19917;-55
2022/06/26 04:35:03;;;;;;;;;;;17.70;99.90;;;;;;5025575;28;20152;-52
2022/06/26 04:37:29;;;;;;;;;;;17.70;99.90;;;;;;5028631;28;19916;-53
2022/06/26 04:39:54;;;;;;;;;;;17.70;99.90;;;;;;5029543;28;20189;-54
2022/06/26 04:42:20;;;;;;;;;;;17.80;99.90;;;;;;5029913;28;20019;-53
2022/06/26 04:44:45;;;;;;;;;;;17.80;99.90;;;;;;5026222;28;19943;-55
2022/06/26 04:47:11;;;;;;;;;;;17.80;99.90;;;;;;5021043;28;19925;-54
2022/06/26 04:49:36;;;;;;;;;;;17.80;99.90;;;;;;5035743;28;19944;-56
2022/06/26 04:52:02;;;;;;;;;;;17.80;99.90;;;;;;5029909;28;20876;-54
2022/06/26 04:54:28;;;;;;;;;;;17.90;99.90;;;;;;5039719;28;19975;-53
2022/06/26 04:56:53;;;;;;;;;;;17.90;99.90;;;;;;5027148;28;19925;-55
2022/06/26 04:59:19;;;;;;;;;;;17.90;99.90;;;;;;5024562;28;20003;-56
2022/06/26 05:01:44;;;;;;;;;;;17.90;99.90;;;;;;5021168;28;19917;-55
2022/06/26 05:04:10;;;;;;;;;;;17.90;99.90;;;;;;5030281;28;19920;-55
2022/06/26 05:06:36;;;;;;;;;;;17.90;99.90;;;;;;5023790;28;20304;-55
2022/06/26 05:09:01;;;;;;;;;;;17.90;99.90;;;;;;5009590;28;20561;-55
2022/06/26 05:11:27;;;;;;;;;;;17.90;99.90;;;;;;5034183;28;20013;-54
2022/06/26 05:13:54;;;;;;;;;;;18.00;99.90;;;;;;5008642;28;20401;-54
2022/06/26 05:16:19;;;;;;;;;;;18.10;99.90;;;;;;5032291;28;19979;-56
2022/06/26 05:18:45;;;;;;;;;;;18.10;99.90;;;;;;5027543;28;20412;-55
2022/06/26 05:21:10;;;;;;;;;;;18.00;99.90;;;;;;5017456;28;19917;-53
2022/06/26 05:23:36;;;;;;;;;;;18.10;99.90;;;;;;5030959;28;19972;-55
2022/06/26 05:26:02;;;;;;;;;;;18.10;99.90;;;;;;5016749;28;19943;-55
2022/06/26 05:28:28;;;;;;;;;;;18.10;99.90;;;;;;5014726;28;19921;-55
2022/06/26 05:30:53;;;;;;;;;;;18.00;99.90;;;;;;5031664;28;19928;-55
2022/06/26 05:33:19;;;;;;;;;;;18.10;99.90;;;;;;5028745;28;20066;-56
2022/06/26 05:35:45;;;;;;;;;;;18.00;99.90;;;;;;5004839;28;19917;-54
2022/06/26 05:38:10;;;;;;;;;;;18.00;99.90;;;;;;5033049;28;19921;-55
2022/06/26 05:40:36;;;;;;;;;;;18.00;99.90;;;;;;5035079;28;19927;-54
2022/06/26 05:43:01;;;;;;;;;;;18.10;99.90;;;;;;5023578;28;20376;-53
2022/06/26 05:45:27;;;;;;;;;;;18.10;99.90;;;;;;5038752;28;19936;-56
2022/06/26 05:47:53;;;;;;;;;;;18.10;99.90;;;;;;5030976;28;19924;-56
2022/06/26 05:50:20;;;;;;;;;;;18.20;99.90;;;;;;5013186;28;19924;-56
2022/06/26 05:52:46;;;;;;;;;;;18.20;99.90;;;;;;5033861;28;19940;-55
2022/06/26 05:55:12;;;;;;;;;;;18.30;99.90;;;;;;5031273;28;20380;-54
2022/06/26 05:57:37;;;;;;;;;;;18.40;99.90;;;;;;5040066;28;19917;-57
2022/06/26 06:00:04;;;;;;;;;;;18.50;99.90;;;;;;5022540;28;20391;-55
2022/06/26 06:02:30;;;;;;;;;;;18.60;99.90;;;;;;5027563;28;20027;-55
2022/06/26 06:04:55;;;;;;;;;;;18.70;99.90;;;;;;5023552;28;19936;-54
2022/06/26 06:07:21;;;;;;;;;;;18.70;99.90;;;;;;5022603;28;19917;-55
2022/06/26 06:09:47;;;;;;;;;;;18.70;99.90;;;;;;5030088;28;20117;-56
2022/06/26 06:12:12;;;;;;;;;;;18.70;99.90;;;;;;5029974;28;19927;-54
2022/06/26 06:14:38;;;;;;;;;;;18.70;99.90;;;;;;5011311;28;20036;-57
2022/06/26 06:17:35;;;;;;;;;;;18.60;99.90;;;;;;5032719;28;20358;-56
2022/06/26 06:19:49;;;;;;;;;;;18.50;99.90;;;;;;5031850;28;19917;-56
2022/06/26 06:22:14;;;;;;;;;;;18.40;99.90;;;;;;5026216;28;19979;-56
2022/06/26 06:24:40;;;;;;;;;;;18.30;99.90;;;;;;5010301;28;20163;-56
2022/06/26 06:27:06;;;;;;;;;;;18.20;99.90;;;;;;5027135;28;21288;-53
2022/06/26 06:29:31;;;;;;;;;;;18.10;99.90;;;;;;4999340;28;19986;-53
2022/06/26 06:31:57;;;;;;;;;;;18.10;99.90;;;;;;5034551;28;20012;-53
2022/06/26 06:34:22;;;;;;;;;;;18.00;99.90;;;;;;5032935;28;19917;-54
2022/06/26 06:36:48;;;;;;;;;;;18.10;99.90;;;;;;5031359;28;19916;-56
2022/06/26 06:39:14;;;;;;;;;;;18.10;99.90;;;;;;5036362;28;19925;-53
2022/06/26 06:41:39;;;;;;;;;;;18.10;99.90;;;;;;5031910;28;19925;-57
2022/06/26 06:44:05;;;;;;;;;;;18.10;99.90;;;;;;5030303;28;20550;-53
2022/06/26 06:46:30;;;;;;;;;;;18.10;99.90;;;;;;5037262;28;19925;-54
2022/06/26 06:48:56;;;;;;;;;;;18.20;99.90;;;;;;5036886;28;19927;-53
2022/06/26 06:51:21;;;;;;;;;;;18.30;99.90;;;;;;5031415;28;19923;-55
2022/06/26 06:53:47;;;;;;;;;;;18.50;99.90;;;;;;5014172;28;20140;-54
2022/06/26 06:56:13;;;;;;;;;;;18.70;99.90;;;;;;5018296;28;20496;-54
2022/06/26 06:58:38;;;;;;;;;;;18.70;99.90;;;;;;5032489;28;19917;-54
2022/06/26 07:01:04;;;;;;;;;;;18.90;99.90;;;;;;5045872;28;19979;-55
2022/06/26 07:03:29;;;;;;;;;;;19.00;99.90;;;;;;5034040;28;19968;-54
2022/06/26 07:05:55;;;;;;;;;;;19.00;99.90;;;;;;5034415;28;20378;-54
2022/06/26 07:08:20;;;;;;;;;;;19.20;99.90;;;;;;5031340;28;19921;-53
2022/06/26 07:10:46;;;;;;;;;;;19.30;99.90;;;;;;5034100;28;19928;-53
2022/06/26 07:13:12;;;;;;;;;;;19.40;99.90;;;;;;5027660;28;20379;-53
2022/06/26 07:15:38;;;;;;;;;;;19.50;99.90;;;;;;5034225;28;19945;-54
2022/06/26 07:18:03;;;;;;;;;;;19.50;99.90;;;;;;5023230;28;19921;-56
2022/06/26 07:20:29;;;;;;;;;;;19.70;99.90;;;;;;5035844;28;20279;-56
2022/06/26 07:22:54;;;;;;;;;;;19.80;99.90;;;;;;5036911;28;19917;-55
2022/06/26 07:25:21;;;;;;;;;;;19.80;99.90;;;;;;5042412;28;19929;-53
2022/06/26 07:27:46;;;;;;;;;;;19.70;99.90;;;;;;5032542;28;20027;-55
2022/06/26 07:30:13;;;;;;;;;;;19.60;99.90;;;;;;5039457;28;20016;-54
2022/06/26 07:32:38;;;;;;;;;;;19.70;99.90;;;;;;5035800;28;20166;-54
2022/06/26 07:35:04;;;;;;;;;;;19.70;99.90;;;;;;5033618;28;19928;-54
2022/06/26 07:37:30;;;;;;;;;;;19.80;99.90;;;;;;5042585;28;19928;-55
2022/06/26 07:39:56;;;;;;;;;;;19.90;99.90;;;;;;5035278;28;19921;-55
2022/06/26 07:42:22;;;;;;;;;;;20.00;99.90;;;;;;5039033;28;19979;-55
2022/06/26 07:44:47;;;;;;;;;;;20.10;99.90;;;;;;5034131;28;19955;-55
2022/06/26 07:47:13;;;;;;;;;;;20.30;99.90;;;;;;5035877;28;20145;-53
2022/06/26 07:49:39;;;;;;;;;;;20.40;99.90;;;;;;5035271;28;19970;-53
2022/06/26 07:52:04;;;;;;;;;;;20.50;99.90;;;;;;5036013;28;19916;-56
2022/06/26 07:54:30;;;;;;;;;;;20.50;99.90;;;;;;5038933;28;19916;-55
2022/06/26 07:56:55;;;;;;;;;;;20.50;99.90;;;;;;5034121;28;20396;-55
2022/06/26 07:59:21;;;;;;;;;;;20.40;99.90;;;;;;5030826;28;19927;-55
2022/06/26 08:01:46;;;;;;;;;;;20.30;99.90;;;;;;5029008;28;20020;-55
2022/06/26 08:04:12;;;;;;;;;;;20.20;99.90;;;;;;5038301;28;19967;-53
2022/06/26 08:06:38;;;;;;;;;;;20.10;99.90;;;;;;5038016;28;19921;-54
2022/06/26 08:09:03;;;;;;;;;;;20.00;99.90;;;;;;5037164;28;19970;-52
2022/06/26 08:11:29;;;;;;;;;;;19.90;99.90;;;;;;5032941;28;20382;-53
2022/06/26 08:13:55;;;;;;;;;;;20.10;99.90;;;;;;5034788;28;20383;-55
2022/06/26 08:16:20;;;;;;;;;;;20.40;99.90;;;;;;5038984;28;19924;-52
2022/06/26 08:18:46;;;;;;;;;;;20.70;99.90;;;;;;5036135;28;20023;-54
2022/06/26 08:23:56;;;;;;;;;;;20.70;99.90;;;;;;5036020;28;19920;-54
2022/06/26 08:26:22;;;;;;;;;;;20.50;99.90;;;;;;5027009;28;19956;-55
2022/06/26 08:28:48;;;;;;;;;;;20.40;99.90;;;;;;5025158;28;19928;-55
2022/06/26 08:31:13;;;;;;;;;;;20.40;99.90;;;;;;5018789;28;19935;-55
2022/06/26 08:33:39;;;;;;;;;;;20.20;99.90;;;;;;5016327;28;19968;-54
2022/06/26 08:36:05;;;;;;;;;;;20.20;99.90;;;;;;5019963;28;19917;-56
2022/06/26 08:38:31;;;;;;;;;;;20.30;99.90;;;;;;5010920;28;20026;-55
2022/06/26 08:40:59;;;;;;;;;;;20.50;99.90;;;;;;5025252;28;19999;-56
2022/06/26 08:43:25;;;;;;;;;;;20.70;99.90;;;;;;5023747;28;20100;-56
2022/06/26 08:45:54;;;;;;;;;;;21.00;99.90;;;;;;5019159;28;20007;-56
2022/06/26 08:48:25;;;;;;;;;;;21.00;99.90;;;;;;5035264;28;19971;-55
2022/06/26 08:50:52;;;;;;;;;;;21.10;99.90;;;;;;5030792;28;19925;-54
2022/06/26 08:53:19;;;;;;;;;;;21.10;99.90;;;;;;5028360;28;20396;-55
2022/06/26 08:55:44;;;;;;;;;;;21.10;99.90;;;;;;5027201;28;20391;-55
2022/06/26 08:58:10;;;;;;;;;;;20.90;99.90;;;;;;5025676;28;19925;-53
2022/06/26 09:00:36;;;;;;;;;;;20.80;99.90;;;;;;5029235;28;20395;-55
2022/06/26 09:03:02;;;;;;;;;;;20.70;99.90;;;;;;5025403;28;19921;-56
2022/06/26 09:05:28;;;;;;;;;;;20.60;99.90;;;;;;4998109;28;19931;-53
2022/06/26 09:08:21;;;;;;;5.95;4.10;;;20.70;99.90;;;;;;4995860;28;20192;-52
2022/06/26 09:10:49;;;;;;;5.20;3.92;;;21.00;99.90;;;;;;5013257;28;20046;-55
2022/06/26 09:13:14;;;;;;;7.07;4.20;;;21.20;99.90;;;;;;5001982;28;20031;-55
2022/06/26 09:15:43;;;;;;;5.72;2.70;;;21.40;99.90;;;;;;5004091;28;20533;-54
2022/06/26 09:18:11;;;;;;;4.68;2.28;;;21.60;99.90;;;;;;4992741;28;20050;-53
2022/06/26 09:20:49;;;;;;;5.13;2.08;;;21.80;99.90;;;;;;4998798;28;20049;-58
2022/06/26 09:23:15;;;;;;;4.40;2.20;;;22.00;99.90;;;;;;4992883;28;20049;-55
2022/06/26 09:25:45;;;;;;;4.88;2.97;;;22.30;99.90;;;;;;5063642;28;20109;-55
2022/06/26 09:28:15;;;;;;;6.47;2.83;;;22.40;99.90;;;;;;5027207;28;20042;-55
2022/06/26 09:30:47;;;;;;;5.13;2.30;;;22.50;99.90;;;;;;4995310;28;20042;-56
2022/06/26 09:33:12;;;;;;;6.22;2.83;;;22.20;99.90;;;;;;4986308;28;20050;-55
2022/06/26 09:35:38;;;;;;;7.03;3.53;;;22.10;99.90;;;;;;5038694;27;20386;-54
2022/06/26 09:38:04;;;;;;;5.18;3.60;;;21.80;99.90;;;;;;5015348;28;20080;-55
2022/06/26 09:40:30;;;;;;;5.93;3.28;;;21.80;99.90;;;;;;5003090;28;20389;-55
2022/06/26 09:42:56;;;;;;;4.32;2.80;;;22.10;99.90;;;;;;5036184;27;20038;-56
2022/06/26 09:45:21;;;;;;;3.75;2.53;;;22.50;99.90;;;;;;5000637;28;20047;-55
2022/06/26 09:47:48;;;;;;;5.63;3.35;;;22.50;99.90;;;;;;5002468;28;20043;-56
2022/06/26 09:50:14;;;;;;;18.58;2.80;;;22.50;99.90;;;;;;5009067;28;20054;-55
2022/06/26 09:52:42;;;;;;;5.07;2.60;;;22.70;99.90;;;;;;4997911;28;20038;-53
2022/06/26 09:55:09;;;;;;;3.75;2.33;;;22.90;99.90;;;;;;4997866;28;20046;-54
2022/06/26 09:57:36;;;;;;;4.57;2.10;;;23.20;99.90;;;;;;5011773;28;20153;-54
2022/06/26 10:00:04;;;;;;;3.58;1.83;;;23.20;99.90;;;;;;4990940;28;20484;-58
2022/06/26 10:08:05;;;;;;;3.63;2.00;;;23.40;98.50;;;;;;4990630;28;20276;-58
2022/06/26 10:10:33;;;;;;;2.85;1.90;;;23.30;98.20;;;;;;4994540;28;20054;-53
2022/06/26 10:13:10;;;;;;;4.72;2.42;;;23.10;98.10;;;;;;5018868;27;20042;-54
2022/06/26 10:15:41;;;;;;;4.80;2.33;;;23.10;98.70;;;;;;5006015;28;21263;-55
2022/06/26 10:18:23;;;;;;;5.60;2.50;;;23.10;98.80;;;;;;5005679;28;20161;-57
2022/06/26 10:20:50;;;;;;;4.47;2.60;;;23.20;98.60;;;;;;5023859;28;20101;-55
2022/06/26 10:23:36;;;;;;;8.60;4.20;;;23.20;98.80;;;;;;5055211;23;20048;-59
2022/06/26 10:26:13;;;;;;;5.57;2.40;;;23.10;98.40;;;;;;5043713;28;20110;-57
2022/06/26 10:29:03;;;;;;;7.50;3.60;;;23.00;98.70;;;;;;5026752;28;20041;-58
2022/06/26 10:31:43;;;;;;;5.57;2.88;;;22.90;98.70;;;;;;5038279;28;20033;-57
2022/06/26 10:34:13;;;;;;;5.30;3.60;;;22.80;99.50;;;;;;5040636;28;20056;-58
2022/06/26 10:36:39;;;;;;;6.57;3.50;;;22.70;99.30;;;;;;5024637;28;20115;-57
2022/06/26 10:39:06;;;;;;;6.40;3.70;;;22.70;99.30;;;;;;5041534;28;20127;-57
2022/06/26 10:44:48;;;;;;;5.40;3.28;;;22.70;99.80;;;;;;5044325;28;20049;-58
2022/06/26 10:47:16;;;;;;;7.65;3.13;;;22.80;99.60;;;;;;5044371;28;20048;-57
2022/06/26 10:49:49;;;;;;;7.18;3.65;;;22.90;99.80;;;;;;5045515;28;20124;-60
2022/06/26 10:52:23;;;;;;;4.90;3.25;;;23.00;99.30;;;;;;5046397;28;20041;-60
2022/06/26 10:54:50;;;;;;;6.18;3.10;;;23.20;99.30;;;;;;5055391;28;21000;-57
2022/06/26 10:57:17;;;;;;;6.80;3.63;;;23.30;99.20;;;;;;5025352;28;20197;-60
2022/06/26 10:59:44;;;;;;;6.28;3.85;;;23.30;99.20;;;;;;5040677;28;20519;-60
2022/06/26 11:02:11;;;;;;;6.60;4.05;;;23.50;99.10;;;;;;5046213;28;20052;-60
2022/06/26 11:04:48;;;;;;;8.57;3.60;;;23.50;98.90;;;;;;5037819;28;20396;-59
2022/06/26 11:07:15;;;;;;;5.55;3.30;;;23.60;98.80;;;;;;5036912;28;20551;-61
2022/06/26 11:09:42;;;;;;;4.55;3.17;;;23.70;98.30;;;;;;5042579;28;20073;-59
2022/06/26 11:12:08;;;;;;;6.40;3.80;;;23.70;98.00;;;;;;5035304;28;20527;-60
2022/06/26 11:14:33;;;;;;;5.90;4.28;;;23.30;97.70;;;;;;5040967;28;20052;-60
2022/06/26 11:16:59;;;;;;;5.00;3.80;;;23.30;98.50;;;;;;5019762;28;20048;-58
2022/06/26 11:19:27;;;;;;;6.10;3.72;;;23.30;98.70;;;;;;5048386;28;20154;-60
2022/06/26 11:22:11;;;;;;;6.55;4.57;;;23.30;98.40;;;;;;5045314;28;20438;-57
2022/06/26 11:24:57;;;;;;;;;;;23.30;98.40;;;;;;5047142;28;20391;-60
2022/06/26 11:27:28;;;;;;;7.72;5.63;;;23.20;98.40;;;;;;5031643;28;19920;-60
2022/06/26 11:29:55;;;;;;;6.90;4.97;;;23.10;99.10;;;;;;5018558;28;20057;-61
2022/06/26 11:32:21;;;;;;;8.00;5.00;;;23.00;99.30;;;;;;5040863;28;20088;-60
2022/06/26 11:34:52;;;;;;;7.63;5.78;;;22.90;99.20;;;;;;5040733;28;20042;-58
2022/06/26 11:37:36;;;;;;;9.70;5.90;;;22.90;99.40;;;;;;5036891;28;20051;-59
2022/06/26 11:40:33;;;;;;;7.65;6.35;;;23.00;99.60;;;;;;5027356;28;20388;-60
2022/06/26 11:42:59;;;;;;;7.78;5.50;;;23.00;99.60;;;;;;5018602;28;20197;-57
2022/06/26 11:45:31;;;;;;;7.15;6.03;;;23.00;99.90;;;;;;5038230;28;20036;-57
2022/06/26 11:47:57;;;;;;;9.00;5.25;;;23.00;99.70;;;;;;5042907;28;20037;-58
2022/06/26 11:50:27;;;;;;;7.78;5.85;;;23.20;99.50;;;;;;5047989;28;20116;-58
2022/06/26 11:52:57;;;;;;;8.07;6.10;;;23.20;99.20;;;;;;5039218;28;20454;-60
2022/06/26 11:55:24;;;;;;;6.10;5.50;;;23.10;98.80;;;;;;5018508;28;20068;-57
2022/06/26 11:57:55;;;;;;;6.72;5.70;;;23.10;98.50;;;;;;5050242;28;20120;-59
2022/06/26 12:00:22;;;;;;;8.93;6.43;;;23.00;98.60;;;;;;5038602;28;20045;-59
2022/06/26 12:02:49;;;;;;;7.78;6.03;;;23.00;98.50;;;;;;5040292;28;20033;-60
2022/06/26 12:05:27;;;;;;;5.60;4.10;;;23.00;98.40;;;;;;5038856;28;20052;-60
2022/06/26 12:07:54;;;;;;;4.90;4.25;;;23.10;98.40;;;;;;5040098;28;20112;-60
2022/06/26 12:10:33;;;;;;;8.27;3.78;;;23.10;98.70;;;;;;5022463;28;20457;-57
2022/06/26 12:13:01;;;;;;;7.43;3.45;;;23.10;98.00;;;;;;5033268;28;20091;-56
2022/06/26 12:15:30;;;;;;;5.57;3.70;;;23.10;97.50;;;;;;5042844;28;20151;-59
2022/06/26 12:17:59;;;;;;;4.72;3.42;;;23.00;97.20;;;;;;5041515;28;20625;-58
2022/06/26 12:20:25;;;;;;;5.57;3.78;;;23.00;97.80;;;;;;5043340;28;20166;-56
2022/06/26 12:22:53;;;;;;;6.20;3.97;;;23.00;98.10;;;;;;5044527;28;20478;-54
2022/06/26 12:25:31;;;;;;;5.35;2.95;;;22.90;98.00;;;;;;5038616;28;20495;-57
2022/06/26 12:27:58;;;;;;;5.18;3.13;;;22.90;98.00;;;;;;5034274;28;20124;-57
2022/06/26 12:30:29;;;;;;;4.90;3.25;;;22.90;98.00;;;;;;5039046;28;20379;-53
2022/06/26 12:32:57;;;;;;;6.43;3.72;;;22.80;97.50;;;;;;5042364;28;20068;-59
2022/06/26 12:35:23;;;;;;;8.60;3.70;;;22.60;97.70;;;;;;5026041;28;20091;-59
2022/06/26 12:37:49;;;;;;;6.53;3.33;;;22.60;97.60;;;;;;5025060;28;20487;-59
2022/06/26 12:40:15;;;;;;;5.45;4.25;;;22.60;97.70;;;;;;5029807;28;20087;-60
2022/06/26 12:42:40;;;;;;;5.82;4.10;;;22.50;98.10;;;;;;5031465;28;20403;-58
2022/06/26 12:45:07;;;;;;;6.88;4.40;;;22.60;98.20;;;;;;5043052;28;20072;-58
2022/06/26 12:47:33;;;;;;;7.10;5.10;;;22.60;98.00;;;;;;5027477;28;20295;-59
2022/06/26 12:49:58;;;;;;;6.43;4.70;;;22.50;98.00;;;;;;5046075;28;20045;-58
2022/06/26 12:52:24;;;;;;;7.60;4.15;;;22.60;97.90;;;;;;5035552;28;20037;-57
2022/06/26 12:54:50;;;;;;;6.38;4.85;;;22.70;98.30;;;;;;5030116;28;20135;-57
2022/06/26 12:57:16;;;;;;;6.93;5.20;;;22.90;98.20;;;;;;5046540;28;20120;-59
2022/06/26 12:59:42;;;;;;;9.18;6.55;;;23.00;97.80;;;;;;5023139;28;20040;-57
2022/06/26 13:02:10;;;;;;;7.22;5.00;;;23.10;98.00;;;;;;5035806;28;20049;-60
2022/06/26 13:04:37;;;;;;;10.07;4.80;;;23.30;98.00;;;;;;5029857;28;20033;-58
2022/06/26 13:07:03;;;;;;;4.43;3.85;;;23.50;98.10;;;;;;5041118;28;20049;-58
2022/06/26 13:09:29;;;;;;;5.90;3.95;;;23.60;97.60;;;;;;5039361;28;20037;-59
2022/06/26 13:11:55;;;;;;;4.15;2.92;;;23.60;97.40;;;;;;5042083;28;20040;-59
2022/06/26 13:14:20;;;;;;;5.47;3.78;;;23.70;97.20;;;;;;5036730;28;20038;-59
2022/06/26 13:16:46;;;;;;;5.70;3.88;;;23.70;96.50;;;;;;5032435;28;20107;-59
2022/06/26 13:19:12;;;;;;;8.05;3.33;;;23.60;96.40;;;;;;5060907;28;20172;-59
2022/06/26 13:21:38;;;;;;;6.03;3.72;;;23.50;96.50;;;;;;5036765;28;20059;-56
2022/06/26 13:24:05;;;;;;;5.70;3.63;;;23.60;96.40;;;;;;5040063;28;21732;-57
2022/06/26 13:26:30;;;;;;;4.40;3.28;;;23.50;96.70;;;;;;5019959;28;20724;-57
2022/06/26 13:28:56;;;;;;;4.55;3.83;;;23.60;96.40;;;;;;5040250;28;20040;-56
2022/06/26 13:31:22;;;;;;;5.18;3.92;;;23.50;96.70;;;;;;5042347;28;20294;-57
2022/06/26 13:33:48;;;;;;;5.80;4.50;;;23.50;97.00;;;;;;5025509;28;20518;-57
2022/06/26 13:36:13;;;;;;;5.00;4.10;;;23.30;96.90;;;;;;5032479;28;20098;-57
2022/06/26 13:38:39;;;;;;;8.52;4.60;;;23.30;97.10;;;;;;5031458;28;20037;-57
2022/06/26 13:41:05;;;;;;;6.43;4.57;;;23.20;97.10;;;;;;5033792;28;20468;-58
2022/06/26 13:43:31;;;;;;;6.00;4.40;;;23.10;97.40;;;;;;5038397;28;20052;-57
2022/06/26 13:45:57;;;;;;;10.88;4.47;;;23.00;97.20;;;;;;5036633;28;20439;-55
2022/06/26 13:48:24;;;;;;;6.78;4.55;;;22.90;97.40;;;;;;5031566;28;20441;-59
2022/06/26 13:50:49;;;;;;;5.57;4.53;;;22.80;97.50;;;;;;5037740;28;20205;-59
2022/06/26 13:53:15;;;;;;;7.20;4.70;;;22.60;97.60;;;;;;5038817;28;20079;-59
2022/06/26 13:55:41;;;;;;;7.10;5.32;;;22.50;98.00;;;;;;5041991;28;20044;-58
2022/06/26 13:58:06;;;;;;;5.72;4.88;;;22.40;98.30;;;;;;5054546;28;20447;-59